Time;durP1;ratioP1;P1;durP2;ratioP2;P2;SDS_P1;SDS_P2;PMS_P1;PMS_P2;Temp;Humidity;BMP_temperature;BMP_pressure;BME280_temperature;BME280_humidity;BME280_pressure;Samples;Min_cycle;Max_cycle;Signal;HPM_P1;HPM_P2
2023/02/22 00:01:46;;;;;;;53.17;24.80;;;8.20;99.90;;;;;;5047758;28;20456;-45
2023/02/22 00:04:12;;;;;;;52.08;22.45;;;8.10;99.90;;;;;;5046668;28;20104;-42
2023/02/22 00:06:38;;;;;;;64.15;25.77;;;8.10;99.90;;;;;;5046725;28;20434;-43
2023/02/22 00:09:04;;;;;;;44.05;21.83;;;8.00;99.90;;;;;;5047911;28;20060;-42
2023/02/22 00:11:30;;;;;;;44.20;20.85;;;7.90;99.90;;;;;;5047519;28;20400;-43
2023/02/22 00:13:56;;;;;;;42.05;19.90;;;7.80;99.90;;;;;;5047527;28;20043;-42
2023/02/22 00:16:23;;;;;;;46.50;21.23;;;7.70;99.90;;;;;;5043962;28;20107;-43
2023/02/22 00:18:49;;;;;;;44.55;19.40;;;7.70;99.90;;;;;;5047464;28;20017;-42
2023/02/22 00:21:16;;;;;;;44.78;21.05;;;7.70;99.90;;;;;;5062225;28;20035;-43
2023/02/22 00:23:47;;;;;;;37.33;18.15;;;7.70;99.90;;;;;;5044597;28;20021;-44
2023/02/22 00:26:18;;;;;;;44.55;20.80;;;7.70;99.90;;;;;;5047410;28;20439;-43
2023/02/22 00:28:49;;;;;;;40.45;20.05;;;7.70;99.90;;;;;;5045155;28;20027;-43
2023/02/22 00:31:15;;;;;;;49.13;23.30;;;7.60;99.90;;;;;;5046171;28;20043;-42
2023/02/22 00:33:41;;;;;;;40.67;19.73;;;7.60;99.90;;;;;;5047002;28;20017;-43
2023/02/22 00:36:07;;;;;;;39.90;19.35;;;7.60;99.90;;;;;;5047356;28;20024;-42
2023/02/22 00:38:33;;;;;;;49.70;22.05;;;7.60;99.90;;;;;;5047717;28;20116;-42
2023/02/22 00:40:58;;;;;;;44.58;19.85;;;7.70;99.90;;;;;;5045090;28;20115;-42
2023/02/22 00:43:25;;;;;;;45.25;20.08;;;7.60;99.90;;;;;;5046760;28;20032;-44
2023/02/22 00:45:50;;;;;;;46.40;21.60;;;7.60;99.90;;;;;;5046463;28;20515;-42
2023/02/22 00:48:16;;;;;;;43.38;20.13;;;7.60;99.90;;;;;;5047302;28;20051;-43
2023/02/22 00:50:41;;;;;;;57.35;25.52;;;7.60;99.90;;;;;;5047005;28;20017;-42
2023/02/22 00:53:08;;;;;;;52.05;23.05;;;7.60;99.90;;;;;;5045499;28;20422;-44
2023/02/22 00:55:35;;;;;;;59.15;25.17;;;7.60;99.90;;;;;;5047020;28;20463;-43
2023/02/22 00:58:02;;;;;;;58.08;25.02;;;7.70;99.90;;;;;;5045960;28;20017;-43
2023/02/22 01:00:31;;;;;;;52.65;23.35;;;7.60;99.90;;;;;;5046909;28;20556;-43
2023/02/22 01:02:57;;;;;;;54.13;24.95;;;7.60;99.90;;;;;;5045678;28;20475;-43
2023/02/22 01:05:26;;;;;;;51.65;23.50;;;7.60;99.90;;;;;;5047015;28;20018;-41
2023/02/22 01:07:54;;;;;;;51.28;24.38;;;7.60;99.90;;;;;;5046930;28;20550;-41
2023/02/22 01:10:21;;;;;;;53.60;23.40;;;7.60;99.90;;;;;;5046862;28;20029;-43
2023/02/22 01:12:48;;;;;;;54.78;23.85;;;7.70;99.90;;;;;;5045344;28;20013;-43
2023/02/22 01:15:20;;;;;;;56.05;25.90;;;7.70;99.90;;;;;;5047096;28;20116;-42
2023/02/22 01:17:46;;;;;;;72.28;29.35;;;7.70;99.90;;;;;;5043519;28;20013;-43
2023/02/22 01:20:12;;;;;;;76.88;31.42;;;7.70;99.90;;;;;;5046631;28;20036;-43
2023/02/22 01:22:39;;;;;;;64.63;27.67;;;7.60;99.90;;;;;;5046216;28;20071;-44
2023/02/22 01:25:06;;;;;;;75.68;30.63;;;7.70;99.90;;;;;;5046797;28;20027;-43
2023/02/22 01:27:32;;;;;;;65.22;27.38;;;7.60;99.90;;;;;;5046743;28;20028;-43
2023/02/22 01:29:58;;;;;;;65.75;26.30;;;7.60;99.90;;;;;;5045599;28;20087;-44
2023/02/22 01:32:23;;;;;;;62.55;24.95;;;7.70;99.90;;;;;;5046797;28;20476;-42
2023/02/22 01:34:52;;;;;;;58.35;24.45;;;7.70;99.90;;;;;;5050664;28;20725;-42
2023/02/22 01:37:17;;;;;;;55.95;24.02;;;7.70;99.90;;;;;;5050816;28;20029;-42
2023/02/22 01:39:43;;;;;;;73.65;28.60;;;7.70;99.90;;;;;;5050723;28;20100;-41
2023/02/22 01:42:09;;;;;;;69.30;27.15;;;7.70;99.90;;;;;;5052158;28;20025;-44
2023/02/22 01:44:36;;;;;;;62.97;26.48;;;7.70;99.90;;;;;;5050668;28;20304;-43
2023/02/22 01:47:04;;;;;;;62.22;25.88;;;7.70;99.90;;;;;;5065364;28;20200;-42
2023/02/22 01:49:49;;;;;;;60.75;25.50;;;7.80;99.90;;;;;;5050330;28;20020;-42
2023/02/22 01:52:19;;;;;;;61.88;26.40;;;7.80;99.90;;;;;;5049157;28;20025;-43
2023/02/22 01:54:52;;;;;;;66.70;27.77;;;7.70;99.90;;;;;;5047284;28;20191;-42
2023/02/22 01:57:22;;;;;;;66.95;28.38;;;7.70;99.90;;;;;;5050146;28;20025;-43
2023/02/22 01:59:52;;;;;;;57.28;25.67;;;7.70;99.90;;;;;;5050258;28;20029;-43
2023/02/22 02:02:18;;;;;;;60.70;26.42;;;7.70;99.90;;;;;;5049577;28;20029;-45
2023/02/22 02:04:44;;;;;;;58.45;23.90;;;7.70;99.90;;;;;;5049128;28;20103;-45
2023/02/22 02:07:13;;;;;;;55.47;24.40;;;7.70;99.90;;;;;;5049852;28;20051;-43
2023/02/22 02:10:13;;;;;;;55.92;23.25;;;7.80;99.90;;;;;;5050018;28;20028;-45
2023/02/22 02:12:40;;;;;;;63.10;25.15;;;7.70;99.90;;;;;;5048207;28;20357;-45
2023/02/22 02:15:25;;;;;;;59.00;24.42;;;7.70;99.90;;;;;;5050178;28;20017;-46
2023/02/22 02:17:53;;;;;;;63.05;27.27;;;7.80;99.90;;;;;;5048172;28;20449;-44
2023/02/22 02:20:26;;;;;;;64.38;26.10;;;7.80;99.90;;;;;;5050084;28;20036;-44
2023/02/22 02:23:10;;;;;;;62.20;25.67;;;7.70;99.90;;;;;;5049921;28;20023;-42
2023/02/22 02:25:36;;;;;;;67.28;27.00;;;7.70;99.90;;;;;;5049197;28;20449;-43
2023/02/22 02:28:29;;;;;;;64.07;26.77;;;7.70;99.90;;;;;;5048252;28;20116;-43
2023/02/22 02:31:28;;;;;;;60.90;24.23;;;7.70;99.90;;;;;;5048197;28;20032;-42
2023/02/22 02:34:04;;;;;;;62.55;24.92;;;7.70;99.90;;;;;;5047759;28;20017;-43
2023/02/22 02:36:38;;;;;;;60.40;24.60;;;7.70;99.90;;;;;;5063177;28;20021;-42
2023/02/22 02:39:28;;;;;;;68.93;26.40;;;7.70;99.90;;;;;;5048291;28;20403;-42
2023/02/22 02:41:55;;;;;;;63.25;28.15;;;7.70;99.90;;;;;;5048902;28;20530;-41
2023/02/22 02:44:43;;;;;;;60.65;25.27;;;7.60;99.90;;;;;;5048182;28;20107;-41
2023/02/22 02:47:15;;;;;;;60.10;24.25;;;7.60;99.90;;;;;;5047574;28;20424;-42
2023/02/22 02:50:08;;;;;;;55.03;23.95;;;7.60;99.90;;;;;;5049336;28;20034;-43
2023/02/22 02:52:35;;;;;;;61.58;24.38;;;7.60;99.90;;;;;;5062675;28;20055;-43
2023/02/22 02:55:03;;;;;;;64.32;25.80;;;7.50;99.90;;;;;;5049057;28;20025;-42
2023/02/22 02:57:29;;;;;;;63.15;25.55;;;7.50;99.90;;;;;;5049522;28;20025;-42
2023/02/22 02:59:54;;;;;;;54.45;24.00;;;7.50;99.90;;;;;;5063469;28;20184;-42
2023/02/22 03:02:35;;;;;;;60.92;25.70;;;7.50;99.90;;;;;;5048531;28;20017;-43
2023/02/22 03:05:31;;;;;;;62.25;25.08;;;7.40;99.90;;;;;;5049070;28;20172;-43
2023/02/22 03:08:19;;;;;;;65.72;26.52;;;7.40;99.90;;;;;;5048263;28;20066;-42
2023/02/22 03:11:00;;;;;;;59.25;25.70;;;7.40;99.90;;;;;;5046693;28;20036;-43
2023/02/22 03:13:25;;;;;;;;;;;7.40;99.90;;;;;;5046618;28;20206;-43
2023/02/22 03:16:30;;;;;;;62.55;23.70;;;7.40;99.90;;;;;;5048482;28;19915;-44
2023/02/22 03:19:25;;;;;;;56.00;25.17;;;7.40;99.90;;;;;;5004994;28;20117;-43
2023/02/22 03:22:01;;;;;;;57.17;23.73;;;7.30;99.90;;;;;;5004195;28;20037;-42
2023/02/22 03:25:00;;;;;;;57.95;23.45;;;7.30;99.90;;;;;;5035240;28;20317;-42
2023/02/22 03:27:52;;;;;;;56.03;22.48;;;7.30;99.90;;;;;;5046339;28;20025;-43
2023/02/22 03:30:30;;;;;;;62.28;25.40;;;7.30;99.90;;;;;;5047550;28;20120;-43
2023/02/22 03:33:07;;;;;;;66.43;25.48;;;7.20;99.90;;;;;;5047034;28;20027;-43
2023/02/22 03:36:24;;;;;;;67.88;25.75;;;7.30;99.90;;;;;;5045971;28;20018;-43
2023/02/22 03:38:54;;;;;;;68.45;27.23;;;7.20;99.90;;;;;;5023908;28;20044;-43
2023/02/22 03:41:24;;;;;;;56.63;25.50;;;7.20;99.90;;;;;;5048127;28;20099;-43
2023/02/22 03:44:05;;;;;;;58.53;23.65;;;7.20;99.90;;;;;;5048070;28;20047;-43
2023/02/22 03:46:34;;;;;;;57.50;23.52;;;7.20;99.90;;;;;;5044844;28;20019;-41
2023/02/22 03:49:24;;;;;;;61.17;24.83;;;7.20;99.90;;;;;;5063219;28;20178;-43
2023/02/22 03:51:49;;;;;;;59.83;23.95;;;7.10;99.90;;;;;;5044803;28;20069;-42
2023/02/22 03:54:16;;;;;;;63.60;24.17;;;7.10;99.90;;;;;;5046944;28;20503;-42
2023/02/22 03:56:49;;;;;;;72.45;26.98;;;7.10;99.90;;;;;;5047719;28;20017;-43
2023/02/22 03:59:15;;;;;;;73.72;26.77;;;7.10;99.90;;;;;;5047902;28;20052;-42
2023/02/22 04:01:40;;;;;;;71.78;27.25;;;7.10;99.90;;;;;;5047556;28;20495;-43
2023/02/22 04:04:06;;;;;;;75.22;26.73;;;7.10;99.90;;;;;;5047864;28;20507;-41
2023/02/22 04:06:32;;;;;;;74.07;28.77;;;7.10;99.90;;;;;;5048099;28;20410;-42
2023/02/22 04:08:57;;;;;;;73.85;26.23;;;7.00;99.90;;;;;;5047964;28;20012;-42
2023/02/22 04:11:23;;;;;;;68.50;26.52;;;7.00;99.90;;;;;;5047038;28;20025;-44
2023/02/22 04:13:49;;;;;;;71.85;24.75;;;7.10;99.90;;;;;;5047291;28;20147;-41
2023/02/22 04:16:14;;;;;;;67.88;25.45;;;7.10;99.90;;;;;;5047758;28;20507;-43
2023/02/22 04:18:40;;;;;;;62.92;25.92;;;7.10;99.90;;;;;;5047582;28;20021;-42
2023/02/22 04:21:05;;;;;;;66.97;25.55;;;7.10;99.90;;;;;;5047657;28;20032;-42
2023/02/22 04:23:31;;;;;;;62.72;25.50;;;7.20;99.90;;;;;;5047275;28;20032;-42
2023/02/22 04:25:56;;;;;;;73.70;27.73;;;7.20;99.90;;;;;;5047667;28;20013;-44
2023/02/22 04:28:22;;;;;;;59.72;25.08;;;7.10;99.90;;;;;;5046309;28;20492;-42
2023/02/22 04:30:48;;;;;;;59.38;23.25;;;7.10;99.90;;;;;;5045756;28;20104;-43
2023/02/22 04:33:15;;;;;;;63.67;23.40;;;7.10;99.90;;;;;;5047352;28;20032;-43
2023/02/22 04:35:40;;;;;;;63.60;24.77;;;7.10;99.90;;;;;;5047662;28;20017;-43
2023/02/22 04:38:08;;;;;;;70.30;27.13;;;7.10;99.90;;;;;;5047419;28;20100;-42
2023/02/22 04:40:33;;;;;;;71.43;28.90;;;7.00;99.90;;;;;;5047214;28;20020;-42
2023/02/22 04:42:59;;;;;;;67.50;25.98;;;7.10;99.90;;;;;;5046992;28;20025;-44
2023/02/22 04:45:24;;;;;;;74.72;27.70;;;7.00;99.90;;;;;;5046836;28;20047;-43
2023/02/22 04:47:50;;;;;;;67.57;24.45;;;7.00;99.90;;;;;;5046562;28;20088;-44
2023/02/22 04:50:15;;;;;;;69.78;25.70;;;7.00;99.90;;;;;;5046874;28;20079;-42
2023/02/22 04:52:41;;;;;;;69.20;26.45;;;6.90;99.90;;;;;;5045695;28;20033;-42
2023/02/22 04:55:07;;;;;;;73.05;27.02;;;6.80;99.90;;;;;;5047249;28;20060;-44
2023/02/22 04:57:32;;;;;;;72.85;25.88;;;6.80;99.90;;;;;;5047592;28;20462;-43
2023/02/22 04:59:58;;;;;;;70.82;26.95;;;6.80;99.90;;;;;;5061403;28;20017;-42
2023/02/22 05:02:24;;;;;;;69.82;24.30;;;6.70;99.90;;;;;;5046238;28;20578;-43
2023/02/22 05:04:49;;;;;;;67.30;24.85;;;6.70;99.90;;;;;;5062175;28;20055;-41
2023/02/22 05:07:16;;;;;;;79.80;27.55;;;6.60;99.90;;;;;;5048235;28;20108;-42
2023/02/22 05:09:42;;;;;;;75.53;28.25;;;6.60;99.90;;;;;;5050487;28;20057;-42
2023/02/22 05:12:07;;;;;;;71.35;26.98;;;6.60;99.90;;;;;;5051049;28;20067;-43
2023/02/22 05:14:34;;;;;;;70.30;24.98;;;6.50;99.90;;;;;;5052239;28;20097;-43
2023/02/22 05:17:01;;;;;;;74.68;26.20;;;6.50;99.90;;;;;;5050920;28;20100;-44
2023/02/22 05:19:27;;;;;;;74.03;25.25;;;6.40;99.90;;;;;;5048965;28;20092;-42
2023/02/22 05:21:52;;;;;;;71.70;25.98;;;6.40;99.90;;;;;;5065305;28;20555;-42
2023/02/22 05:24:18;;;;;;;66.30;24.35;;;6.40;99.90;;;;;;5050668;28;20388;-41
2023/02/22 05:26:44;;;;;;;78.00;26.15;;;6.30;99.90;;;;;;5065640;28;20032;-42
2023/02/22 05:29:11;;;;;;;68.57;24.92;;;6.30;99.90;;;;;;5051226;28;20021;-42
2023/02/22 05:31:36;;;;;;;64.35;24.17;;;6.30;99.90;;;;;;5051983;28;20020;-42
2023/02/22 05:34:02;;;;;;;64.13;24.95;;;6.20;99.90;;;;;;5051991;28;20070;-42
2023/02/22 05:36:27;;;;;;;69.38;25.60;;;6.10;99.90;;;;;;5052219;28;20312;-43
2023/02/22 05:38:54;;;;;;;82.40;27.00;;;6.10;99.90;;;;;;5067182;28;20028;-42
2023/02/22 05:41:19;;;;;;;69.88;24.40;;;6.00;99.90;;;;;;5051681;28;20025;-42
2023/02/22 05:43:46;;;;;;;62.53;23.98;;;6.00;99.90;;;;;;5051216;28;20407;-42
2023/02/22 05:48:13;;;;;;;60.95;21.52;;;5.90;99.90;;;;;;5086568;28;20377;-44
2023/02/22 05:50:39;;;;;;;68.55;25.80;;;5.80;99.90;;;;;;5086207;28;20466;-43
2023/02/22 05:53:04;;;;;;;67.18;25.23;;;5.90;99.90;;;;;;5085784;28;20032;-44
2023/02/22 05:55:30;;;;;;;67.72;24.73;;;5.80;99.90;;;;;;5086066;28;20531;-44
2023/02/22 05:57:56;;;;;;;53.88;20.10;;;5.80;99.90;;;;;;5085912;28;20020;-43
2023/02/22 06:00:26;;;;;;;54.80;22.15;;;5.80;99.90;;;;;;5085955;28;20032;-43
2023/02/22 06:03:00;;;;;;;61.60;22.65;;;5.80;99.90;;;;;;5085754;28;20028;-43
2023/02/22 06:05:26;;;;;;;59.50;22.02;;;5.80;99.90;;;;;;5101736;28;20591;-44
2023/02/22 06:07:52;;;;;;;71.00;23.65;;;5.70;99.90;;;;;;5085949;28;20095;-43
2023/02/22 06:10:19;;;;;;;56.35;21.38;;;5.70;99.90;;;;;;5084411;28;20222;-43
2023/02/22 06:12:45;;;;;;;52.08;20.77;;;5.70;99.90;;;;;;5085190;28;20560;-44
2023/02/22 06:15:10;;;;;;;52.03;19.77;;;5.60;99.90;;;;;;5085602;28;20032;-42
2023/02/22 06:17:38;;;;;;;54.75;19.85;;;5.70;99.90;;;;;;5085500;28;20460;-43
2023/02/22 06:20:04;;;;;;;56.78;21.50;;;5.60;99.90;;;;;;5085885;28;20017;-43
2023/02/22 06:22:29;;;;;;;48.00;18.10;;;5.60;99.90;;;;;;5085297;28;20020;-43
2023/02/22 06:24:55;;;;;;;48.85;19.42;;;5.60;99.90;;;;;;5085853;28;20683;-44
2023/02/22 06:27:20;;;;;;;51.70;20.17;;;5.60;99.90;;;;;;5085499;28;20531;-43
2023/02/22 06:29:46;;;;;;;52.20;19.52;;;5.60;99.90;;;;;;5085588;28;20025;-44
2023/02/22 06:32:13;;;;;;;58.90;21.10;;;5.60;99.90;;;;;;5084874;28;20331;-43
2023/02/22 06:34:39;;;;;;;58.40;20.90;;;5.60;99.90;;;;;;5084177;28;20017;-44
2023/02/22 06:37:06;;;;;;;57.10;21.13;;;5.60;99.90;;;;;;5085323;28;20035;-42
2023/02/22 06:39:32;;;;;;;63.08;23.67;;;5.70;99.90;;;;;;5085419;28;20024;-43
2023/02/22 06:41:58;;;;;;;73.90;26.13;;;5.80;99.90;;;;;;5084720;28;20024;-44
2023/02/22 06:44:24;;;;;;;64.63;24.98;;;5.80;99.90;;;;;;5085177;28;20099;-43
2023/02/22 06:46:50;;;;;;;67.10;23.92;;;5.90;99.90;;;;;;5085055;28;20043;-44
2023/02/22 06:49:17;;;;;;;64.35;22.92;;;6.00;99.90;;;;;;5085156;28;20055;-43
2023/02/22 06:51:42;;;;;;;69.20;24.65;;;6.10;99.90;;;;;;5085219;28;20103;-44
2023/02/22 06:54:08;;;;;;;63.65;22.20;;;6.20;99.90;;;;;;5084765;28;20100;-43
2023/02/22 06:56:34;;;;;;;73.30;25.05;;;6.20;99.90;;;;;;5085051;28;20032;-43
2023/02/22 06:59:00;;;;;;;64.68;24.13;;;6.30;99.90;;;;;;5074646;28;20040;-43
2023/02/22 07:01:26;;;;;;;68.80;26.05;;;6.30;99.90;;;;;;5071266;28;20460;-43
2023/02/22 07:03:52;;;;;;;69.43;25.10;;;6.40;99.90;;;;;;5071411;28;20025;-44
2023/02/22 07:06:18;;;;;;;66.70;24.25;;;6.50;99.90;;;;;;5071172;28;20309;-42
2023/02/22 07:08:43;;;;;;;70.18;24.40;;;6.50;99.90;;;;;;5071103;28;20029;-43
2023/02/22 07:11:09;;;;;;;60.05;23.73;;;6.60;99.90;;;;;;5071323;28;20017;-44
2023/02/22 07:13:34;;;;;;;68.38;26.92;;;6.60;99.90;;;;;;5070779;28;20060;-44
2023/02/22 07:16:00;;;;;;;71.13;27.92;;;6.70;99.90;;;;;;5071039;28;20058;-40
2023/02/22 07:18:25;;;;;;;64.68;26.00;;;6.80;99.90;;;;;;5071199;28;20035;-42
2023/02/22 07:20:51;;;;;;;67.78;26.60;;;6.80;99.90;;;;;;5070964;28;20124;-42
2023/02/22 07:23:17;;;;;;;59.08;24.55;;;6.90;99.90;;;;;;5070572;28;20028;-43
2023/02/22 07:25:42;;;;;;;59.03;23.42;;;6.90;99.90;;;;;;5069608;28;20021;-43
2023/02/22 07:28:12;;;;;;;69.60;25.38;;;7.00;99.90;;;;;;5069848;28;20540;-43
2023/02/22 07:30:37;;;;;;;67.75;27.42;;;7.10;99.90;;;;;;5071004;28;20020;-43
2023/02/22 07:33:06;;;;;;;62.13;24.70;;;7.10;99.90;;;;;;5070553;28;20032;-43
2023/02/22 07:35:37;;;;;;;66.10;25.50;;;7.20;99.90;;;;;;5071059;28;20477;-42
2023/02/22 07:38:09;;;;;;;60.35;24.55;;;7.30;99.90;;;;;;5071247;28;20040;-43
2023/02/22 07:40:36;;;;;;;61.80;24.40;;;7.40;99.90;;;;;;5071117;28;20028;-42
2023/02/22 07:43:03;;;;;;;53.45;23.55;;;7.50;99.90;;;;;;5070356;28;20139;-43
2023/02/22 07:45:33;;;;;;;65.50;25.20;;;7.50;99.90;;;;;;5070605;28;20518;-42
2023/02/22 07:48:00;;;;;;;65.65;26.33;;;7.60;99.90;;;;;;5070352;28;20032;-43
2023/02/22 07:50:30;;;;;;;66.85;26.50;;;7.70;99.90;;;;;;5070339;28;20024;-43
2023/02/22 07:52:57;;;;;;;55.05;24.52;;;7.80;99.90;;;;;;5070105;28;20493;-42
2023/02/22 07:55:26;;;;;;;60.05;25.35;;;7.90;99.90;;;;;;5069295;28;20031;-42
2023/02/22 07:57:54;;;;;;;64.63;24.63;;;7.90;99.90;;;;;;5070485;28;20028;-43
2023/02/22 08:00:27;;;;;;;61.03;24.70;;;7.90;99.90;;;;;;5068923;28;20401;-42
2023/02/22 08:02:53;;;;;;;61.60;24.55;;;8.10;99.90;;;;;;5069460;28;20028;-43
2023/02/22 08:05:20;;;;;;;53.47;22.88;;;8.10;99.90;;;;;;5069783;28;20017;-43
2023/02/22 08:07:45;;;;;;;61.85;24.80;;;8.30;99.90;;;;;;5069821;28;20024;-43
2023/02/22 08:10:13;;;;;;;54.45;22.90;;;8.40;99.90;;;;;;5067820;28;20017;-43
2023/02/22 08:12:39;;;;;;;55.80;23.95;;;8.50;99.90;;;;;;5069959;28;20524;-43
2023/02/22 08:15:07;;;;;;;54.70;24.15;;;8.60;99.90;;;;;;5070515;28;20032;-42
2023/02/22 08:17:32;;;;;;;58.13;23.80;;;8.60;99.90;;;;;;5070489;28;20093;-45
2023/02/22 08:19:58;;;;;;;61.47;25.80;;;8.70;99.90;;;;;;5070283;28;20481;-43
2023/02/22 08:22:23;;;;;;;56.25;24.10;;;8.70;99.90;;;;;;5068044;28;20078;-42
2023/02/22 08:24:53;;;;;;;53.00;22.95;;;8.80;99.90;;;;;;5070202;28;20032;-43
2023/02/22 08:27:25;;;;;;;53.38;23.50;;;8.90;99.90;;;;;;5069716;28;20021;-42
2023/02/22 08:29:51;;;;;;;50.80;23.40;;;8.90;99.90;;;;;;5070041;28;20016;-44
2023/02/22 08:32:17;;;;;;;56.20;23.10;;;9.00;99.90;;;;;;5069499;28;20028;-43
2023/02/22 08:34:42;;;;;;;52.65;23.30;;;9.00;99.90;;;;;;5069729;28;20407;-44
2023/02/22 08:37:08;;;;;;;55.20;21.95;;;9.10;99.90;;;;;;5069622;28;20036;-41
2023/02/22 08:39:33;;;;;;;53.10;23.17;;;9.10;99.90;;;;;;5069471;28;20332;-44
2023/02/22 08:41:59;;;;;;;50.60;22.85;;;9.20;99.90;;;;;;5069296;28;20032;-43
2023/02/22 08:44:24;;;;;;;49.22;22.10;;;9.30;99.90;;;;;;5068288;28;20089;-43
2023/02/22 08:46:50;;;;;;;47.80;20.92;;;9.30;99.90;;;;;;5069339;28;20105;-41
2023/02/22 08:49:16;;;;;;;43.38;20.20;;;9.40;99.90;;;;;;5069453;28;20670;-46
2023/02/22 08:51:41;;;;;;;48.75;20.77;;;9.60;99.90;;;;;;5069379;28;20023;-42
2023/02/22 08:54:07;;;;;;;52.67;21.67;;;9.70;99.90;;;;;;5067843;28;20388;-43
2023/02/22 08:56:32;;;;;;;49.00;22.58;;;9.90;99.90;;;;;;5069194;28;20131;-41
2023/02/22 08:58:58;;;;;;;46.22;21.73;;;10.30;99.90;;;;;;5069122;28;20024;-42
2023/02/22 09:01:24;;;;;;;50.92;21.20;;;10.50;99.90;;;;;;5068839;28;20031;-42
2023/02/22 09:03:50;;;;;;;41.58;19.08;;;10.80;99.90;;;;;;5068776;28;20389;-42
2023/02/22 09:06:17;;;;;;;41.00;19.05;;;10.90;99.90;;;;;;5069305;28;20047;-45
2023/02/22 09:08:43;;;;;;;44.42;19.60;;;11.00;99.90;;;;;;5069167;28;20043;-43
2023/02/22 09:11:08;;;;;;;39.92;19.70;;;11.00;99.90;;;;;;5068841;28;20012;-42
2023/02/22 09:13:34;;;;;;;37.33;18.77;;;11.10;99.90;;;;;;5068384;28;20027;-42
2023/02/22 09:15:59;;;;;;;34.97;17.52;;;11.10;99.90;;;;;;5067480;28;20025;-42
2023/02/22 09:18:26;;;;;;;32.92;16.92;;;11.10;99.90;;;;;;5069048;28;20032;-42
2023/02/22 09:20:53;;;;;;;33.97;16.88;;;11.10;99.90;;;;;;5069096;28;20095;-44
2023/02/22 09:23:20;;;;;;;38.28;17.83;;;10.90;99.90;;;;;;5068435;28;20119;-43
2023/02/22 09:25:46;;;;;;;34.50;15.60;;;10.90;99.90;;;;;;5068729;28;20027;-43
2023/02/22 09:28:12;;;;;;;32.50;15.90;;;10.90;99.90;;;;;;5068762;28;20403;-43
2023/02/22 09:30:37;;;;;;;33.78;17.42;;;10.90;99.90;;;;;;5068844;28;20024;-43
2023/02/22 09:33:08;;;;;;;35.17;16.55;;;11.10;99.90;;;;;;5067030;28;20036;-43
2023/02/22 09:35:34;;;;;;;35.92;17.30;;;11.30;99.90;;;;;;5068695;28;20021;-44
2023/02/22 09:38:02;;;;;;;36.80;16.92;;;11.50;99.90;;;;;;5068629;28;20025;-43
2023/02/22 09:40:31;;;;;;;34.75;17.50;;;11.70;99.90;;;;;;5067652;28;20032;-43
2023/02/22 09:43:18;;;;;;;38.50;18.00;;;12.00;99.90;;;;;;5068159;28;20032;-42
2023/02/22 09:46:23;;;;;;;30.17;16.63;;;12.40;99.90;;;;;;5065222;28;20452;-42
2023/02/22 09:49:22;;;;;;;30.90;15.95;;;12.80;99.90;;;;;;5068136;28;20043;-45
2023/02/22 09:51:52;;;;;;;31.92;15.73;;;13.60;99.90;;;;;;5067413;28;20058;-43
2023/02/22 09:54:42;;;;;;;24.65;14.43;;;14.60;99.90;;;;;;5068694;28;20021;-43
2023/02/22 09:57:12;;;;;;;29.67;16.20;;;16.00;99.90;;;;;;5067624;28;20024;-43
2023/02/22 10:00:00;;;;;;;25.52;15.43;;;16.80;99.90;;;;;;5068730;28;20056;-44
2023/02/22 10:02:31;;;;;;;24.15;14.75;;;18.10;99.90;;;;;;5068109;28;20481;-44
2023/02/22 10:05:04;;;;;;;23.70;14.65;;;18.80;98.60;;;;;;5067370;28;20035;-43
2023/02/22 10:07:39;;;;;;;24.30;15.05;;;19.60;95.80;;;;;;5068612;28;20385;-41
2023/02/22 10:10:06;;;;;;;22.48;13.98;;;20.10;94.70;;;;;;5068649;28;20363;-43
2023/02/22 10:12:57;;;;;;;24.38;14.93;;;20.60;92.80;;;;;;5067868;28;20021;-42
2023/02/22 10:15:47;;;;;;;22.65;14.80;;;21.30;90.60;;;;;;5066928;28;20028;-45
2023/02/22 10:18:55;;;;;;;24.77;14.70;;;22.30;87.40;;;;;;5067153;28;20025;-45
2023/02/22 10:21:46;;;;;;;19.60;13.27;;;21.80;86.20;;;;;;5067033;28;20371;-45
2023/02/22 10:24:41;;;;;;;24.38;14.20;;;22.00;84.40;;;;;;5066863;28;20020;-44
2023/02/22 10:27:17;;;;;;;20.02;14.10;;;22.40;82.40;;;;;;5068189;28;20513;-45
2023/02/22 10:29:47;;;;;;;24.38;14.30;;;22.40;81.50;;;;;;5068535;28;20549;-42
2023/02/22 10:32:15;;;;;;;;;;;22.80;80.00;;;;;;5068192;28;20032;-42
2023/02/22 10:34:47;;;;;;;19.15;12.43;;;22.60;79.70;;;;;;5071173;28;19908;-43
2023/02/22 10:37:24;;;;;;;21.63;12.88;;;22.50;78.40;;;;;;5070476;28;20107;-43
2023/02/22 10:39:55;;;;;;;20.55;13.07;;;22.40;78.90;;;;;;5071824;28;20025;-44
2023/02/22 10:42:25;;;;;;;22.52;13.60;;;22.10;77.90;;;;;;5071286;28;20024;-43
2023/02/22 10:44:50;;;;;;;19.25;12.15;;;21.70;77.80;;;;;;5071590;28;20039;-43
2023/02/22 10:47:18;;;;;;;18.75;11.88;;;21.30;80.60;;;;;;5071737;28;20036;-45
2023/02/22 10:49:52;;;;;;;15.55;10.77;;;21.30;80.40;;;;;;5071944;28;20040;-45
2023/02/22 10:52:30;;;;;;;17.33;10.65;;;20.00;82.20;;;;;;5070933;28;20016;-45
2023/02/22 10:54:58;;;;;;;17.33;12.02;;;19.40;82.00;;;;;;5070098;28;20028;-46
2023/02/22 10:57:35;;;;;;;18.77;11.63;;;19.10;84.20;;;;;;5071806;28;20024;-46
2023/02/22 11:00:28;;;;;;;17.40;11.25;;;18.40;85.70;;;;;;5070094;28;20024;-43
2023/02/22 11:03:04;;;;;;;18.60;12.68;;;18.10;88.50;;;;;;5070477;28;20078;-42
2023/02/22 11:05:35;;;;;;;19.40;12.48;;;17.20;90.50;;;;;;5069779;28;20367;-43
2023/02/22 11:08:19;;;;;;;19.55;11.63;;;17.60;90.40;;;;;;5071382;28;20097;-45
2023/02/22 11:10:52;;;;;;;21.63;13.43;;;17.90;90.50;;;;;;5071416;28;20086;-42
2023/02/22 11:13:27;;;;;;;17.67;10.90;;;18.10;89.40;;;;;;5070951;28;20017;-44
2023/02/22 11:16:02;;;;;;;20.58;11.73;;;18.80;89.80;;;;;;5071692;28;20048;-42
2023/02/22 11:18:36;;;;;;;19.02;11.68;;;19.50;87.50;;;;;;5071542;28;20024;-43
2023/02/22 11:21:06;;;;;;;15.30;10.38;;;19.50;86.90;;;;;;5070225;28;20033;-44
2023/02/22 11:23:34;;;;;;;20.10;11.02;;;20.40;83.80;;;;;;5071023;28;20421;-41
2023/02/22 11:26:06;;;;;;;16.65;10.88;;;21.00;80.00;;;;;;5071169;28;20024;-41
2023/02/22 11:28:32;;;;;;;19.50;12.93;;;20.60;82.00;;;;;;5071023;28;20020;-41
2023/02/22 11:31:13;;;;;;;24.08;14.93;;;21.30;80.70;;;;;;5071303;28;20027;-42
2023/02/22 11:33:51;;;;;;;19.15;11.93;;;21.30;80.10;;;;;;5069423;28;20085;-46
2023/02/22 11:36:36;;;;;;;21.08;12.15;;;21.10;83.60;;;;;;5070981;28;20500;-43
2023/02/22 11:39:04;;;;;;;19.40;11.63;;;21.60;81.30;;;;;;5070947;28;20033;-46
2023/02/22 11:41:33;;;;;;;20.60;11.48;;;21.20;81.40;;;;;;5070956;28;20048;-41
2023/02/22 11:44:20;;;;;;;15.95;10.98;;;21.40;78.80;;;;;;5070643;28;20039;-42
2023/02/22 11:46:46;;;;;;;14.55;9.85;;;21.50;79.20;;;;;;5070382;28;20111;-45
2023/02/22 11:49:16;;;;;;;15.07;9.57;;;21.70;78.20;;;;;;5069231;28;20044;-44
2023/02/22 11:51:53;;;;;;;19.70;11.07;;;21.80;78.20;;;;;;5070547;28;20359;-43
2023/02/22 11:54:43;;;;;;;17.10;11.88;;;21.50;78.00;;;;;;5070944;28;20025;-43
2023/02/22 11:57:28;;;;;;;16.85;11.18;;;21.40;77.50;;;;;;5070843;28;20029;-46
2023/02/22 12:00:23;;;;;;;17.50;11.73;;;21.90;76.60;;;;;;5070647;28;20040;-41
2023/02/22 12:03:02;;;;;;;19.25;11.90;;;19.80;81.20;;;;;;5070101;28;20021;-42
2023/02/22 12:05:39;;;;;;;20.08;12.82;;;20.20;83.10;;;;;;5068969;28;20021;-44
2023/02/22 12:08:16;;;;;;;21.63;13.55;;;20.70;82.00;;;;;;5070295;28;20107;-45
2023/02/22 12:10:59;;;;;;;22.38;13.55;;;20.60;81.30;;;;;;5070347;28;20020;-42
2023/02/22 12:13:36;;;;;;;21.58;12.57;;;20.70;81.80;;;;;;5069642;28;20024;-42
2023/02/22 12:16:20;;;;;;;20.42;13.13;;;21.40;80.00;;;;;;5070038;28;20482;-44
2023/02/22 12:19:04;;;;;;;20.23;13.48;;;20.80;79.00;;;;;;5070316;28;20504;-42
2023/02/22 12:21:33;;;;;;;26.25;13.82;;;20.10;82.70;;;;;;5068774;28;20025;-42
2023/02/22 12:24:11;;;;;;;22.38;14.80;;;20.10;84.20;;;;;;5069465;28;20012;-45
2023/02/22 12:26:41;;;;;;;23.38;14.52;;;20.00;83.90;;;;;;5069564;28;20020;-43
2023/02/22 12:29:15;;;;;;;25.55;14.55;;;20.10;82.50;;;;;;5069924;28;21038;-42
2023/02/22 12:31:49;;;;;;;21.35;14.27;;;19.90;83.60;;;;;;5069572;28;20017;-43
2023/02/22 12:34:34;;;;;;;26.13;15.13;;;19.60;86.00;;;;;;5069247;28;20377;-42
2023/02/22 12:37:12;;;;;;;22.85;13.70;;;19.20;85.80;;;;;;5069621;28;20103;-45
2023/02/22 12:40:22;;;;;;;24.40;15.20;;;18.70;88.10;;;;;;5069807;28;20032;-45
2023/02/22 12:43:04;;;;;;;24.63;14.27;;;18.50;90.20;;;;;;5069573;28;20107;-44
2023/02/22 12:45:50;;;;;;;23.10;14.35;;;18.60;89.70;;;;;;5069881;28;20274;-43
2023/02/22 12:48:32;;;;;;;28.42;15.38;;;18.40;90.10;;;;;;5069769;28;20028;-42
2023/02/22 12:51:17;;;;;;;27.10;14.70;;;17.80;91.70;;;;;;5069590;28;20112;-42
2023/02/22 12:53:54;;;;;;;22.90;13.63;;;17.50;92.20;;;;;;5067827;28;20093;-45
2023/02/22 12:56:52;;;;;;;28.52;14.85;;;17.50;92.60;;;;;;5069127;28;20477;-42
2023/02/22 12:59:28;;;;;;;26.75;13.82;;;17.30;93.00;;;;;;5069127;28;20123;-44